Decoded Metar for KNSE (MILTON in FL, USA) (IATA:NSE) | Meteo·Mobile Aviation Weather
aviador You're here:

KNSE Decoded Metar

MILTON in FL, USA
Report Time2019-01-16 17:56:00
UTC Time2019-01-16 18:05:27
Flight Rules vfr VFR
WindVRB at 04 kt
Visibility9999 m
Phenomena:Smoke
Clouds:Few 250 Hf
Expected CloudBase > 3,600 ft AGL from Temp-Dew spread
CeilingNone
Temp12°C (ISA -3)
Dew Point03°C (54% RH)
AAT9.1°C
QNH1027 hPa
Density Alt-476 ft
Elevation200 ft
Report Wrong Elevation
Raw Report
METAR KNSE 161756Z VRB04KT 10SM FEW250 12/03 A3032 RMK AO2 SLP255 FU
N T01170028 10122 20028 58010 $

Extra information for KNSE:More info

Metar Taf Metar & Taf Last 4 Metars F.Rules Stats Wind Profile Meteogram Temp Stats Airport Information Weather charts Add Link Nearby VenuesMetar ALERT Operation Metar Decoded Social comments

AIRNAV info for KNSE